Terminal Aerodrome Forecast
Issued by NWS

Home | Current Version | Previous Version | Graphics & Text | Print | Product List | Glossary On
Versions: 1 2 3 4 5 6 7 8 9 10 11 12 13 14
000
FTUS43 KUNR 180500
TAFGCC
TAF
KGCC 180520Z 1806/1906 30006KT P6SM SCT150
     FM181400 32012KT P6SM SCT150
     FM190100 17007KT P6SM SCT150=

USA.gov is the U.S. government's official web portal to all federal, state and local government web resources and services.